sensor_id;sensor_type;location;lat;lon;timestamp;temperature;humidity
64226;DHT22;50545;56.064;26.178;2022-08-03T00:02:16;13.30;99.90
64226;DHT22;50545;56.064;26.178;2022-08-03T00:04:44;13.40;99.90
64226;DHT22;50545;56.064;26.178;2022-08-03T00:07:11;13.30;99.90
64226;DHT22;50545;56.064;26.178;2022-08-03T00:09:38;13.30;99.90
64226;DHT22;50545;56.064;26.178;2022-08-03T00:12:06;13.20;99.90
64226;DHT22;50545;56.064;26.178;2022-08-03T00:14:33;13.20;99.90
64226;DHT22;50545;56.064;26.178;2022-08-03T00:17:01;13.20;99.90
64226;DHT22;50545;56.064;26.178;2022-08-03T00:19:29;13.20;99.90
64226;DHT22;50545;56.064;26.178;2022-08-03T00:21:56;13.20;99.90
64226;DHT22;50545;56.064;26.178;2022-08-03T00:24:24;13.20;99.90
64226;DHT22;50545;56.064;26.178;2022-08-03T00:26:51;13.20;99.90
64226;DHT22;50545;56.064;26.178;2022-08-03T00:29:18;13.10;99.90
64226;DHT22;50545;56.064;26.178;2022-08-03T00:31:46;13.10;99.90
64226;DHT22;50545;56.064;26.178;2022-08-03T00:34:25;13.10;99.90
64226;DHT22;50545;56.064;26.178;2022-08-03T00:37:12;13.10;99.90
64226;DHT22;50545;56.064;26.178;2022-08-03T00:39:42;13.10;99.90
64226;DHT22;50545;56.064;26.178;2022-08-03T00:42:11;13.00;99.90
64226;DHT22;50545;56.064;26.178;2022-08-03T00:44:40;13.00;99.90
64226;DHT22;50545;56.064;26.178;2022-08-03T00:47:09;13.00;99.90
64226;DHT22;50545;56.064;26.178;2022-08-03T00:49:38;13.00;99.90
64226;DHT22;50545;56.064;26.178;2022-08-03T00:52:10;13.00;99.90
64226;DHT22;50545;56.064;26.178;2022-08-03T00:54:39;12.90;99.90
64226;DHT22;50545;56.064;26.178;2022-08-03T00:57:07;12.90;99.90
64226;DHT22;50545;56.064;26.178;2022-08-03T00:59:35;12.90;99.90
64226;DHT22;50545;56.064;26.178;2022-08-03T01:02:04;12.90;99.90
64226;DHT22;50545;56.064;26.178;2022-08-03T01:04:32;12.90;99.90
64226;DHT22;50545;56.064;26.178;2022-08-03T01:09:46;12.80;99.90
64226;DHT22;50545;56.064;26.178;2022-08-03T01:12:24;12.70;99.90
64226;DHT22;50545;56.064;26.178;2022-08-03T01:15:04;12.70;99.90
64226;DHT22;50545;56.064;26.178;2022-08-03T01:20:07;12.70;99.90
64226;DHT22;50545;56.064;26.178;2022-08-03T01:25:42;12.70;99.90
64226;DHT22;50545;56.064;26.178;2022-08-03T01:31:13;12.60;99.90
64226;DHT22;50545;56.064;26.178;2022-08-03T01:33:44;12.60;99.90
64226;DHT22;50545;56.064;26.178;2022-08-03T01:36:21;12.60;99.90
64226;DHT22;50545;56.064;26.178;2022-08-03T01:38:55;12.70;99.90
64226;DHT22;50545;56.064;26.178;2022-08-03T01:41:29;12.70;99.90
64226;DHT22;50545;56.064;26.178;2022-08-03T01:43:58;12.70;99.90
64226;DHT22;50545;56.064;26.178;2022-08-03T01:46:47;12.80;99.90
64226;DHT22;50545;56.064;26.178;2022-08-03T01:49:17;12.90;99.90
64226;DHT22;50545;56.064;26.178;2022-08-03T01:51:46;12.90;99.90
64226;DHT22;50545;56.064;26.178;2022-08-03T01:54:36;13.00;99.90
64226;DHT22;50545;56.064;26.178;2022-08-03T01:57:04;13.00;99.90
64226;DHT22;50545;56.064;26.178;2022-08-03T01:59:34;13.00;99.90
64226;DHT22;50545;56.064;26.178;2022-08-03T02:02:04;13.00;99.90
64226;DHT22;50545;56.064;26.178;2022-08-03T02:04:54;13.10;99.90
64226;DHT22;50545;56.064;26.178;2022-08-03T02:07:24;13.10;99.90
64226;DHT22;50545;56.064;26.178;2022-08-03T02:09:53;13.10;99.90
64226;DHT22;50545;56.064;26.178;2022-08-03T02:12:24;13.10;99.90
64226;DHT22;50545;56.064;26.178;2022-08-03T02:14:52;13.00;99.90
64226;DHT22;50545;56.064;26.178;2022-08-03T02:17:22;13.00;99.90
64226;DHT22;50545;56.064;26.178;2022-08-03T02:20:08;13.00;99.90
64226;DHT22;50545;56.064;26.178;2022-08-03T02:22:40;13.00;99.90
64226;DHT22;50545;56.064;26.178;2022-08-03T02:25:13;13.00;99.90
64226;DHT22;50545;56.064;26.178;2022-08-03T02:28:01;12.90;99.90
64226;DHT22;50545;56.064;26.178;2022-08-03T02:30:38;12.90;99.90
64226;DHT22;50545;56.064;26.178;2022-08-03T02:33:29;12.90;99.90
64226;DHT22;50545;56.064;26.178;2022-08-03T02:35:59;12.80;99.90
64226;DHT22;50545;56.064;26.178;2022-08-03T02:38:39;12.80;99.90
64226;DHT22;50545;56.064;26.178;2022-08-03T02:41:07;12.80;99.90
64226;DHT22;50545;56.064;26.178;2022-08-03T02:43:39;12.80;99.90
64226;DHT22;50545;56.064;26.178;2022-08-03T02:46:35;12.80;99.90
64226;DHT22;50545;56.064;26.178;2022-08-03T02:49:05;12.80;99.90
64226;DHT22;50545;56.064;26.178;2022-08-03T02:51:54;12.80;99.90
64226;DHT22;50545;56.064;26.178;2022-08-03T02:54:23;12.80;99.90
64226;DHT22;50545;56.064;26.178;2022-08-03T02:56:56;12.80;99.90
64226;DHT22;50545;56.064;26.178;2022-08-03T02:59:24;12.70;99.90
64226;DHT22;50545;56.064;26.178;2022-08-03T03:01:54;12.80;99.90
64226;DHT22;50545;56.064;26.178;2022-08-03T03:04:21;12.70;99.90
64226;DHT22;50545;56.064;26.178;2022-08-03T03:06:59;12.80;99.90
64226;DHT22;50545;56.064;26.178;2022-08-03T03:09:30;12.90;99.90
64226;DHT22;50545;56.064;26.178;2022-08-03T03:12:11;12.90;99.90
64226;DHT22;50545;56.064;26.178;2022-08-03T03:14:39;12.90;99.90
64226;DHT22;50545;56.064;26.178;2022-08-03T03:17:08;12.90;99.90
64226;DHT22;50545;56.064;26.178;2022-08-03T03:19:38;12.90;99.90
64226;DHT22;50545;56.064;26.178;2022-08-03T03:22:07;13.00;99.90
64226;DHT22;50545;56.064;26.178;2022-08-03T03:24:35;13.00;99.90
64226;DHT22;50545;56.064;26.178;2022-08-03T03:27:04;13.00;99.90
64226;DHT22;50545;56.064;26.178;2022-08-03T03:29:32;13.00;99.90
64226;DHT22;50545;56.064;26.178;2022-08-03T03:32:05;13.00;99.90
64226;DHT22;50545;56.064;26.178;2022-08-03T03:34:35;13.10;99.90
64226;DHT22;50545;56.064;26.178;2022-08-03T03:37:03;13.00;99.90
64226;DHT22;50545;56.064;26.178;2022-08-03T03:39:31;12.90;99.90
64226;DHT22;50545;56.064;26.178;2022-08-03T03:41:59;12.90;99.90
64226;DHT22;50545;56.064;26.178;2022-08-03T03:44:28;12.90;99.90
64226;DHT22;50545;56.064;26.178;2022-08-03T03:46:56;12.90;99.90
64226;DHT22;50545;56.064;26.178;2022-08-03T03:49:24;13.00;99.90
64226;DHT22;50545;56.064;26.178;2022-08-03T03:51:53;13.00;99.90
64226;DHT22;50545;56.064;26.178;2022-08-03T03:54:21;13.10;99.90
64226;DHT22;50545;56.064;26.178;2022-08-03T03:56:51;13.20;99.90
64226;DHT22;50545;56.064;26.178;2022-08-03T03:59:18;13.30;99.90
64226;DHT22;50545;56.064;26.178;2022-08-03T04:01:45;13.50;99.90
64226;DHT22;50545;56.064;26.178;2022-08-03T04:04:25;13.60;99.90
64226;DHT22;50545;56.064;26.178;2022-08-03T04:07:11;13.70;99.90
64226;DHT22;50545;56.064;26.178;2022-08-03T04:09:57;13.80;99.90
64226;DHT22;50545;56.064;26.178;2022-08-03T04:12:43;14.00;99.90
64226;DHT22;50545;56.064;26.178;2022-08-03T04:15:19;14.20;99.90
64226;DHT22;50545;56.064;26.178;2022-08-03T04:17:49;14.30;99.90
64226;DHT22;50545;56.064;26.178;2022-08-03T04:20:19;14.50;99.90
64226;DHT22;50545;56.064;26.178;2022-08-03T04:22:50;14.60;99.90
64226;DHT22;50545;56.064;26.178;2022-08-03T04:25:20;14.80;99.90
64226;DHT22;50545;56.064;26.178;2022-08-03T04:27:51;14.90;99.90
64226;DHT22;50545;56.064;26.178;2022-08-03T04:30:39;15.10;99.90
64226;DHT22;50545;56.064;26.178;2022-08-03T04:33:15;15.20;99.90
64226;DHT22;50545;56.064;26.178;2022-08-03T04:35:46;15.40;99.90
64226;DHT22;50545;56.064;26.178;2022-08-03T04:38:32;15.50;99.90
64226;DHT22;50545;56.064;26.178;2022-08-03T04:41:01;15.60;99.90
64226;DHT22;50545;56.064;26.178;2022-08-03T04:43:31;15.70;99.90
64226;DHT22;50545;56.064;26.178;2022-08-03T04:46:00;15.80;99.90
64226;DHT22;50545;56.064;26.178;2022-08-03T04:48:28;16.00;99.90
64226;DHT22;50545;56.064;26.178;2022-08-03T04:50:56;16.10;99.90
64226;DHT22;50545;56.064;26.178;2022-08-03T04:53:23;16.30;99.90
64226;DHT22;50545;56.064;26.178;2022-08-03T04:55:51;16.40;99.90
64226;DHT22;50545;56.064;26.178;2022-08-03T04:58:18;16.60;99.90
64226;DHT22;50545;56.064;26.178;2022-08-03T05:00:45;16.70;99.90
64226;DHT22;50545;56.064;26.178;2022-08-03T05:03:17;16.80;99.90
64226;DHT22;50545;56.064;26.178;2022-08-03T05:05:54;16.90;99.90
64226;DHT22;50545;56.064;26.178;2022-08-03T05:08:38;17.00;99.90
64226;DHT22;50545;56.064;26.178;2022-08-03T05:11:12;17.00;99.90
64226;DHT22;50545;56.064;26.178;2022-08-03T05:13:40;17.10;99.90
64226;DHT22;50545;56.064;26.178;2022-08-03T05:16:07;17.20;99.90
64226;DHT22;50545;56.064;26.178;2022-08-03T05:18:34;17.20;99.90
64226;DHT22;50545;56.064;26.178;2022-08-03T05:21:02;17.20;99.90
64226;DHT22;50545;56.064;26.178;2022-08-03T05:23:29;17.20;99.90
64226;DHT22;50545;56.064;26.178;2022-08-03T05:25:57;17.30;99.90
64226;DHT22;50545;56.064;26.178;2022-08-03T05:28:24;17.30;99.90
64226;DHT22;50545;56.064;26.178;2022-08-03T05:30:51;17.30;99.90
64226;DHT22;50545;56.064;26.178;2022-08-03T05:33:19;17.30;99.90
64226;DHT22;50545;56.064;26.178;2022-08-03T05:35:46;17.30;99.90
64226;DHT22;50545;56.064;26.178;2022-08-03T05:38:31;17.30;99.90
64226;DHT22;50545;56.064;26.178;2022-08-03T05:41:04;17.40;99.90
64226;DHT22;50545;56.064;26.178;2022-08-03T05:43:53;17.50;99.90
64226;DHT22;50545;56.064;26.178;2022-08-03T05:46:21;17.50;99.90
64226;DHT22;50545;56.064;26.178;2022-08-03T05:48:49;17.60;99.90
64226;DHT22;50545;56.064;26.178;2022-08-03T05:51:17;17.60;99.90
64226;DHT22;50545;56.064;26.178;2022-08-03T05:53:44;17.50;99.90
64226;DHT22;50545;56.064;26.178;2022-08-03T05:56:12;17.60;99.90
64226;DHT22;50545;56.064;26.178;2022-08-03T05:58:44;17.60;99.90
64226;DHT22;50545;56.064;26.178;2022-08-03T06:01:11;17.70;99.90
64226;DHT22;50545;56.064;26.178;2022-08-03T06:03:38;17.80;99.90
64226;DHT22;50545;56.064;26.178;2022-08-03T06:06:06;17.90;99.90
64226;DHT22;50545;56.064;26.178;2022-08-03T06:08:34;18.00;99.90
64226;DHT22;50545;56.064;26.178;2022-08-03T06:11:02;18.20;99.90
64226;DHT22;50545;56.064;26.178;2022-08-03T06:13:29;18.30;99.90
64226;DHT22;50545;56.064;26.178;2022-08-03T06:15:56;18.40;99.90
64226;DHT22;50545;56.064;26.178;2022-08-03T06:18:24;18.50;99.90
64226;DHT22;50545;56.064;26.178;2022-08-03T06:20:51;18.60;99.90
64226;DHT22;50545;56.064;26.178;2022-08-03T06:23:19;18.70;99.90
64226;DHT22;50545;56.064;26.178;2022-08-03T06:25:47;18.80;99.90
64226;DHT22;50545;56.064;26.178;2022-08-03T06:28:14;19.00;99.90
64226;DHT22;50545;56.064;26.178;2022-08-03T06:31:02;19.00;99.90
64226;DHT22;50545;56.064;26.178;2022-08-03T06:33:32;19.10;99.90
64226;DHT22;50545;56.064;26.178;2022-08-03T06:36:19;19.00;99.90
64226;DHT22;50545;56.064;26.178;2022-08-03T06:38:47;19.00;99.90
64226;DHT22;50545;56.064;26.178;2022-08-03T06:41:14;18.90;99.90
64226;DHT22;50545;56.064;26.178;2022-08-03T06:43:41;18.80;99.90
64226;DHT22;50545;56.064;26.178;2022-08-03T06:46:29;18.70;99.90
64226;DHT22;50545;56.064;26.178;2022-08-03T06:48:56;18.60;99.90
64226;DHT22;50545;56.064;26.178;2022-08-03T06:51:23;18.60;99.90
64226;DHT22;50545;56.064;26.178;2022-08-03T06:54:11;18.70;99.90
64226;DHT22;50545;56.064;26.178;2022-08-03T06:56:38;18.80;99.90
64226;DHT22;50545;56.064;26.178;2022-08-03T06:59:05;19.00;99.90
64226;DHT22;50545;56.064;26.178;2022-08-03T07:01:33;19.20;99.90
64226;DHT22;50545;56.064;26.178;2022-08-03T07:04:00;19.40;99.90
64226;DHT22;50545;56.064;26.178;2022-08-03T07:06:27;19.50;99.90
64226;DHT22;50545;56.064;26.178;2022-08-03T07:08:54;19.60;99.90
64226;DHT22;50545;56.064;26.178;2022-08-03T07:11:25;19.70;99.90
64226;DHT22;50545;56.064;26.178;2022-08-03T07:13:54;19.90;99.90
64226;DHT22;50545;56.064;26.178;2022-08-03T07:16:22;20.00;96.50
64226;DHT22;50545;56.064;26.178;2022-08-03T07:18:49;20.20;94.00
64226;DHT22;50545;56.064;26.178;2022-08-03T07:21:16;20.30;98.40
64226;DHT22;50545;56.064;26.178;2022-08-03T07:23:44;20.40;90.10
64226;DHT22;50545;56.064;26.178;2022-08-03T07:26:11;20.50;84.60
64226;DHT22;50545;56.064;26.178;2022-08-03T07:28:39;20.50;79.80
64226;DHT22;50545;56.064;26.178;2022-08-03T07:31:06;20.50;90.40
64226;DHT22;50545;56.064;26.178;2022-08-03T07:33:33;20.70;83.60
64226;DHT22;50545;56.064;26.178;2022-08-03T07:36:01;20.80;87.70
64226;DHT22;50545;56.064;26.178;2022-08-03T07:38:28;21.00;80.60
64226;DHT22;50545;56.064;26.178;2022-08-03T07:40:56;21.20;77.90
64226;DHT22;50545;56.064;26.178;2022-08-03T07:43:23;21.20;73.10
64226;DHT22;50545;56.064;26.178;2022-08-03T07:45:51;21.30;76.10
64226;DHT22;50545;56.064;26.178;2022-08-03T07:48:18;21.40;78.70
64226;DHT22;50545;56.064;26.178;2022-08-03T07:50:45;21.50;75.30
64226;DHT22;50545;56.064;26.178;2022-08-03T07:53:13;21.70;72.90
64226;DHT22;50545;56.064;26.178;2022-08-03T07:55:40;21.70;73.00
64226;DHT22;50545;56.064;26.178;2022-08-03T07:58:10;21.70;68.20
64226;DHT22;50545;56.064;26.178;2022-08-03T08:00:50;21.50;69.40
64226;DHT22;50545;56.064;26.178;2022-08-03T08:03:19;21.40;73.00
64226;DHT22;50545;56.064;26.178;2022-08-03T08:05:48;21.50;75.50
64226;DHT22;50545;56.064;26.178;2022-08-03T08:08:15;21.50;68.80
64226;DHT22;50545;56.064;26.178;2022-08-03T08:10:43;21.50;72.10
64226;DHT22;50545;56.064;26.178;2022-08-03T08:13:25;21.70;80.50
64226;DHT22;50545;56.064;26.178;2022-08-03T08:15:52;22.00;73.80
64226;DHT22;50545;56.064;26.178;2022-08-03T08:18:19;22.30;67.10
64226;DHT22;50545;56.064;26.178;2022-08-03T08:20:46;22.30;68.40
64226;DHT22;50545;56.064;26.178;2022-08-03T08:23:14;22.30;67.80
64226;DHT22;50545;56.064;26.178;2022-08-03T08:26:01;22.30;69.00
64226;DHT22;50545;56.064;26.178;2022-08-03T08:28:28;22.20;70.20
64226;DHT22;50545;56.064;26.178;2022-08-03T08:31:00;22.20;69.30
64226;DHT22;50545;56.064;26.178;2022-08-03T08:33:27;22.10;67.70
64226;DHT22;50545;56.064;26.178;2022-08-03T08:36:15;22.10;70.20
64226;DHT22;50545;56.064;26.178;2022-08-03T08:38:42;22.30;71.50
64226;DHT22;50545;56.064;26.178;2022-08-03T08:41:12;22.40;74.90
64226;DHT22;50545;56.064;26.178;2022-08-03T08:43:40;22.70;71.60
64226;DHT22;50545;56.064;26.178;2022-08-03T08:46:11;23.00;73.30
64226;DHT22;50545;56.064;26.178;2022-08-03T08:48:51;23.30;62.30
64226;DHT22;50545;56.064;26.178;2022-08-03T08:51:20;23.60;63.50
64226;DHT22;50545;56.064;26.178;2022-08-03T08:53:51;23.80;63.00
64226;DHT22;50545;56.064;26.178;2022-08-03T08:56:19;24.00;58.40
64226;DHT22;50545;56.064;26.178;2022-08-03T08:58:53;24.20;64.50
64226;DHT22;50545;56.064;26.178;2022-08-03T09:01:22;24.40;59.30
64226;DHT22;50545;56.064;26.178;2022-08-03T09:03:50;24.50;60.30
64226;DHT22;50545;56.064;26.178;2022-08-03T09:06:21;24.50;58.20
64226;DHT22;50545;56.064;26.178;2022-08-03T09:08:48;24.30;57.20
64226;DHT22;50545;56.064;26.178;2022-08-03T09:11:20;24.00;60.00
64226;DHT22;50545;56.064;26.178;2022-08-03T09:14:09;23.80;61.30
64226;DHT22;50545;56.064;26.178;2022-08-03T09:16:58;23.50;62.70
64226;DHT22;50545;56.064;26.178;2022-08-03T09:19:30;23.20;64.60
64226;DHT22;50545;56.064;26.178;2022-08-03T09:22:14;23.00;66.50
64226;DHT22;50545;56.064;26.178;2022-08-03T09:25:04;22.80;66.60
64226;DHT22;50545;56.064;26.178;2022-08-03T09:27:53;22.70;65.00
64226;DHT22;50545;56.064;26.178;2022-08-03T09:30:20;22.90;68.10
64226;DHT22;50545;56.064;26.178;2022-08-03T09:33:10;23.10;64.60
64226;DHT22;50545;56.064;26.178;2022-08-03T09:35:46;23.30;66.30
64226;DHT22;50545;56.064;26.178;2022-08-03T09:38:24;23.50;61.00
64226;DHT22;50545;56.064;26.178;2022-08-03T09:40:55;23.70;62.60
64226;DHT22;50545;56.064;26.178;2022-08-03T09:43:26;23.80;57.80
64226;DHT22;50545;56.064;26.178;2022-08-03T09:46:06;23.90;55.80
64226;DHT22;50545;56.064;26.178;2022-08-03T09:48:33;24.20;60.50
64226;DHT22;50545;56.064;26.178;2022-08-03T09:51:03;24.40;55.70
64226;DHT22;50545;56.064;26.178;2022-08-03T09:53:51;24.70;60.40
64226;DHT22;50545;56.064;26.178;2022-08-03T09:56:40;24.80;50.70
64226;DHT22;50545;56.064;26.178;2022-08-03T09:59:09;24.90;50.90
64226;DHT22;50545;56.064;26.178;2022-08-03T10:01:37;25.10;50.50
64226;DHT22;50545;56.064;26.178;2022-08-03T10:04:14;25.20;49.40
64226;DHT22;50545;56.064;26.178;2022-08-03T10:07:07;25.20;51.00
64226;DHT22;50545;56.064;26.178;2022-08-03T10:09:36;25.10;52.00
64226;DHT22;50545;56.064;26.178;2022-08-03T10:12:11;25.20;53.70
64226;DHT22;50545;56.064;26.178;2022-08-03T10:14:40;25.40;54.00
64226;DHT22;50545;56.064;26.178;2022-08-03T10:17:11;25.70;50.70
64226;DHT22;50545;56.064;26.178;2022-08-03T10:19:38;25.80;53.40
64226;DHT22;50545;56.064;26.178;2022-08-03T10:22:12;26.00;51.80
64226;DHT22;50545;56.064;26.178;2022-08-03T10:27:19;26.40;48.80
64226;DHT22;50545;56.064;26.178;2022-08-03T10:29:51;26.60;51.20
64226;DHT22;50545;56.064;26.178;2022-08-03T10:32:27;26.80;53.10
64226;DHT22;50545;56.064;26.178;2022-08-03T10:35:05;26.80;46.40
64226;DHT22;50545;56.064;26.178;2022-08-03T10:38:03;26.70;44.60
64226;DHT22;50545;56.064;26.178;2022-08-03T10:40:33;26.80;46.30
64226;DHT22;50545;56.064;26.178;2022-08-03T10:43:27;26.90;46.40
64226;DHT22;50545;56.064;26.178;2022-08-03T10:45:57;27.00;47.40
64226;DHT22;50545;56.064;26.178;2022-08-03T10:48:25;27.20;44.70
64226;DHT22;50545;56.064;26.178;2022-08-03T10:50:52;27.40;51.60
64226;DHT22;50545;56.064;26.178;2022-08-03T10:53:39;27.70;45.50
64226;DHT22;50545;56.064;26.178;2022-08-03T11:02:13;27.40;42.30
64226;DHT22;50545;56.064;26.178;2022-08-03T11:04:41;27.20;42.80
64226;DHT22;50545;56.064;26.178;2022-08-03T11:09:46;26.90;43.00
64226;DHT22;50545;56.064;26.178;2022-08-03T11:12:25;26.70;46.20
64226;DHT22;50545;56.064;26.178;2022-08-03T11:15:05;26.70;44.10
64226;DHT22;50545;56.064;26.178;2022-08-03T11:17:34;26.70;42.90
64226;DHT22;50545;56.064;26.178;2022-08-03T11:20:47;26.70;41.60
64226;DHT22;50545;56.064;26.178;2022-08-03T11:23:16;26.80;44.50
64226;DHT22;50545;56.064;26.178;2022-08-03T11:26:14;27.00;44.80
64226;DHT22;50545;56.064;26.178;2022-08-03T11:28:46;27.00;37.20
64226;DHT22;50545;56.064;26.178;2022-08-03T11:34:16;27.30;44.00
64226;DHT22;50545;56.064;26.178;2022-08-03T11:37:22;27.50;47.10
64226;DHT22;50545;56.064;26.178;2022-08-03T11:39:55;27.70;44.70
64226;DHT22;50545;56.064;26.178;2022-08-03T11:47:20;27.90;47.00
64226;DHT22;50545;56.064;26.178;2022-08-03T11:49:49;28.00;43.80
64226;DHT22;50545;56.064;26.178;2022-08-03T11:52:17;28.10;43.30
64226;DHT22;50545;56.064;26.178;2022-08-03T11:54:53;28.20;44.20
64226;DHT22;50545;56.064;26.178;2022-08-03T11:57:30;28.20;43.30
64226;DHT22;50545;56.064;26.178;2022-08-03T12:00:38;28.20;45.60
64226;DHT22;50545;56.064;26.178;2022-08-03T12:03:09;28.30;46.60
64226;DHT22;50545;56.064;26.178;2022-08-03T12:05:42;28.30;42.20
64226;DHT22;50545;56.064;26.178;2022-08-03T12:08:32;28.40;44.80
64226;DHT22;50545;56.064;26.178;2022-08-03T12:11:01;28.50;42.80
64226;DHT22;50545;56.064;26.178;2022-08-03T12:16:25;28.50;43.20
64226;DHT22;50545;56.064;26.178;2022-08-03T12:19:04;28.60;44.90
64226;DHT22;50545;56.064;26.178;2022-08-03T12:21:32;28.50;40.40
64226;DHT22;50545;56.064;26.178;2022-08-03T12:24:03;28.30;43.00
64226;DHT22;50545;56.064;26.178;2022-08-03T12:26:44;28.40;47.20
64226;DHT22;50545;56.064;26.178;2022-08-03T12:29:25;28.50;45.80
64226;DHT22;50545;56.064;26.178;2022-08-03T12:31:53;28.60;39.60
64226;DHT22;50545;56.064;26.178;2022-08-03T12:34:22;28.30;37.70
64226;DHT22;50545;56.064;26.178;2022-08-03T12:36:54;28.00;45.10
64226;DHT22;50545;56.064;26.178;2022-08-03T12:39:24;28.00;42.30
64226;DHT22;50545;56.064;26.178;2022-08-03T12:41:53;28.20;39.90
64226;DHT22;50545;56.064;26.178;2022-08-03T12:44:34;28.20;39.20
64226;DHT22;50545;56.064;26.178;2022-08-03T12:47:03;28.40;43.50
64226;DHT22;50545;56.064;26.178;2022-08-03T12:49:46;28.70;41.20
64226;DHT22;50545;56.064;26.178;2022-08-03T12:52:16;28.80;34.40
64226;DHT22;50545;56.064;26.178;2022-08-03T12:54:58;28.50;38.60
64226;DHT22;50545;56.064;26.178;2022-08-03T12:57:40;28.70;39.30
64226;DHT22;50545;56.064;26.178;2022-08-03T13:00:12;28.90;40.80
64226;DHT22;50545;56.064;26.178;2022-08-03T13:03:00;29.10;38.60
64226;DHT22;50545;56.064;26.178;2022-08-03T13:05:48;29.40;37.30
64226;DHT22;50545;56.064;26.178;2022-08-03T13:08:23;29.30;33.80
64226;DHT22;50545;56.064;26.178;2022-08-03T13:10:51;29.20;38.20
64226;DHT22;50545;56.064;26.178;2022-08-03T13:13:38;29.30;38.50
64226;DHT22;50545;56.064;26.178;2022-08-03T13:16:06;29.70;39.00
64226;DHT22;50545;56.064;26.178;2022-08-03T13:18:33;29.90;37.30
64226;DHT22;50545;56.064;26.178;2022-08-03T13:21:00;30.20;38.60
64226;DHT22;50545;56.064;26.178;2022-08-03T13:23:28;30.40;38.60
64226;DHT22;50545;56.064;26.178;2022-08-03T13:25:55;30.70;40.30
64226;DHT22;50545;56.064;26.178;2022-08-03T13:28:22;30.90;33.40
64226;DHT22;50545;56.064;26.178;2022-08-03T13:30:50;31.20;34.20
64226;DHT22;50545;56.064;26.178;2022-08-03T13:33:17;31.30;33.60
64226;DHT22;50545;56.064;26.178;2022-08-03T13:35:44;31.40;38.00
64226;DHT22;50545;56.064;26.178;2022-08-03T13:38:12;31.50;34.70
64226;DHT22;50545;56.064;26.178;2022-08-03T13:40:42;31.70;38.10
64226;DHT22;50545;56.064;26.178;2022-08-03T13:43:11;31.70;34.90
64226;DHT22;50545;56.064;26.178;2022-08-03T13:45:39;31.70;36.00
64226;DHT22;50545;56.064;26.178;2022-08-03T13:48:06;31.80;37.80
64226;DHT22;50545;56.064;26.178;2022-08-03T13:50:33;31.80;35.40
64226;DHT22;50545;56.064;26.178;2022-08-03T13:53:06;31.70;36.10
64226;DHT22;50545;56.064;26.178;2022-08-03T13:55:34;31.80;37.80
64226;DHT22;50545;56.064;26.178;2022-08-03T13:58:01;31.80;33.10
64226;DHT22;50545;56.064;26.178;2022-08-03T14:00:33;31.30;31.40
64226;DHT22;50545;56.064;26.178;2022-08-03T14:03:02;31.00;32.70
64226;DHT22;50545;56.064;26.178;2022-08-03T14:05:41;31.00;33.90
64226;DHT22;50545;56.064;26.178;2022-08-03T14:08:09;31.00;38.60
64226;DHT22;50545;56.064;26.178;2022-08-03T14:10:39;30.80;37.80
64226;DHT22;50545;56.064;26.178;2022-08-03T14:13:09;30.80;36.10
64226;DHT22;50545;56.064;26.178;2022-08-03T14:15:36;31.00;35.10
64226;DHT22;50545;56.064;26.178;2022-08-03T14:18:08;30.30;35.00
64226;DHT22;50545;56.064;26.178;2022-08-03T14:20:42;29.90;36.10
64226;DHT22;50545;56.064;26.178;2022-08-03T14:23:17;29.70;42.70
64226;DHT22;50545;56.064;26.178;2022-08-03T14:25:45;30.00;41.50
64226;DHT22;50545;56.064;26.178;2022-08-03T14:28:20;30.40;38.60
64226;DHT22;50545;56.064;26.178;2022-08-03T14:30:53;30.80;38.90
64226;DHT22;50545;56.064;26.178;2022-08-03T14:33:22;31.30;38.70
64226;DHT22;50545;56.064;26.178;2022-08-03T14:35:50;31.40;35.60
64226;DHT22;50545;56.064;26.178;2022-08-03T14:38:18;31.40;37.70
64226;DHT22;50545;56.064;26.178;2022-08-03T14:40:45;31.60;38.40
64226;DHT22;50545;56.064;26.178;2022-08-03T14:43:13;31.90;37.30
64226;DHT22;50545;56.064;26.178;2022-08-03T14:45:41;32.10;34.10
64226;DHT22;50545;56.064;26.178;2022-08-03T14:48:08;32.20;34.40
64226;DHT22;50545;56.064;26.178;2022-08-03T14:50:55;32.00;29.90
64226;DHT22;50545;56.064;26.178;2022-08-03T14:53:23;32.00;30.30
64226;DHT22;50545;56.064;26.178;2022-08-03T14:55:50;31.80;33.50
64226;DHT22;50545;56.064;26.178;2022-08-03T14:58:22;32.00;32.20
64226;DHT22;50545;56.064;26.178;2022-08-03T15:00:52;32.30;32.70
64226;DHT22;50545;56.064;26.178;2022-08-03T15:03:21;32.70;34.00
64226;DHT22;50545;56.064;26.178;2022-08-03T15:05:54;33.00;30.80
64226;DHT22;50545;56.064;26.178;2022-08-03T15:08:23;33.00;32.80
64226;DHT22;50545;56.064;26.178;2022-08-03T15:10:51;33.10;34.00
64226;DHT22;50545;56.064;26.178;2022-08-03T15:13:19;33.30;33.10
64226;DHT22;50545;56.064;26.178;2022-08-03T15:15:47;33.50;33.30
64226;DHT22;50545;56.064;26.178;2022-08-03T15:18:15;33.70;30.60
64226;DHT22;50545;56.064;26.178;2022-08-03T15:20:43;33.90;33.10
64226;DHT22;50545;56.064;26.178;2022-08-03T15:23:13;34.00;32.30
64226;DHT22;50545;56.064;26.178;2022-08-03T15:25:42;34.20;31.90
64226;DHT22;50545;56.064;26.178;2022-08-03T15:28:30;34.30;31.90
64226;DHT22;50545;56.064;26.178;2022-08-03T15:30:58;34.50;30.80
64226;DHT22;50545;56.064;26.178;2022-08-03T15:33:26;34.50;30.80
64226;DHT22;50545;56.064;26.178;2022-08-03T15:35:53;34.70;31.50
64226;DHT22;50545;56.064;26.178;2022-08-03T15:38:21;34.70;30.60
64226;DHT22;50545;56.064;26.178;2022-08-03T15:40:53;34.90;29.80
64226;DHT22;50545;56.064;26.178;2022-08-03T15:43:21;34.80;30.00
64226;DHT22;50545;56.064;26.178;2022-08-03T15:45:49;34.90;29.80
64226;DHT22;50545;56.064;26.178;2022-08-03T15:48:36;34.90;29.70
64226;DHT22;50545;56.064;26.178;2022-08-03T15:51:04;35.10;30.00
64226;DHT22;50545;56.064;26.178;2022-08-03T15:53:33;35.10;29.80
64226;DHT22;50545;56.064;26.178;2022-08-03T15:56:01;35.10;30.20
64226;DHT22;50545;56.064;26.178;2022-08-03T15:58:37;35.10;31.00
64226;DHT22;50545;56.064;26.178;2022-08-03T16:01:25;35.10;32.20
64226;DHT22;50545;56.064;26.178;2022-08-03T16:03:52;35.00;30.00
64226;DHT22;50545;56.064;26.178;2022-08-03T16:06:19;35.10;33.20
64226;DHT22;50545;56.064;26.178;2022-08-03T16:09:01;35.20;32.40
64226;DHT22;50545;56.064;26.178;2022-08-03T16:11:28;35.10;31.60
64226;DHT22;50545;56.064;26.178;2022-08-03T16:13:55;35.00;33.90
64226;DHT22;50545;56.064;26.178;2022-08-03T16:16:42;35.00;33.30
64226;DHT22;50545;56.064;26.178;2022-08-03T16:19:10;34.90;35.40
64226;DHT22;50545;56.064;26.178;2022-08-03T16:21:37;34.80;32.70